Main page
METAR-TAF:

METAR-TAF

Airports :

Assiut Airport

Asyut, Egypt

latitude: 27-03N, longitude: 031-01E, elevation: 226 m

Current weather observation

The report was made 1 hour and 16 minutes ago, at 06:00 UTC
Calm wind
Temperature 30°C
Humidity 29%
Pressure 1009 hPa
Visibility 10 km or more
no clouds below 1500 m and no cumulonimbus

METAR: HEAT 300600Z 00000KT CAVOK 30/10 Q1009 NOSIG

Time: 09:16 (07:16 UTC)

Forecast

The report was made 2 hours and 16 minutes ago, at 05:00 UTC
Forecast valid from 30 at 06 UTC to 31 at 12 UTC
Wind 10 kt from the West/Northwest
Visibility 10 km or more
no clouds below 1500 m and no cumulonimbus

TAF: HEAT 300500Z 3006/3112 30010KT CAVOK

Weather observations and forecasts of more than 4000 airports (METAR and TAF reports).

The available stations are represented by yellow and red dots on the map.

Hover mouse over dot to see the name of the station.

Then click to see weather observations and forecasts.

To change the map : click on the green buttons with a black cross to zoom in, on the green button with a dash to zoom out, or on the green arrows for adjacent maps.


METAR-TAF: